sensor_id;sensor_type;location;lat;lon;timestamp;P1;durP1;ratioP1;P2;durP2;ratioP2
15104;SDS011;7653;48.994;9.212;2022-10-10T00:00:02;5.77;;;3.07;;
15104;SDS011;7653;48.994;9.212;2022-10-10T00:02:30;4.60;;;2.93;;
15104;SDS011;7653;48.994;9.212;2022-10-10T00:04:56;7.07;;;3.20;;
15104;SDS011;7653;48.994;9.212;2022-10-10T00:07:21;4.23;;;3.40;;
15104;SDS011;7653;48.994;9.212;2022-10-10T00:09:49;5.13;;;3.80;;
15104;SDS011;7653;48.994;9.212;2022-10-10T00:12:14;5.20;;;4.20;;
15104;SDS011;7653;48.994;9.212;2022-10-10T00:14:40;6.97;;;3.50;;
15104;SDS011;7653;48.994;9.212;2022-10-10T00:17:05;5.50;;;3.90;;
15104;SDS011;7653;48.994;9.212;2022-10-10T00:19:31;4.17;;;3.20;;
15104;SDS011;7653;48.994;9.212;2022-10-10T00:21:57;5.80;;;3.80;;
15104;SDS011;7653;48.994;9.212;2022-10-10T00:24:23;4.40;;;3.50;;
15104;SDS011;7653;48.994;9.212;2022-10-10T00:26:48;4.30;;;3.50;;
15104;SDS011;7653;48.994;9.212;2022-10-10T00:29:14;5.30;;;3.90;;
15104;SDS011;7653;48.994;9.212;2022-10-10T00:31:40;3.97;;;3.50;;
15104;SDS011;7653;48.994;9.212;2022-10-10T00:34:06;6.33;;;4.17;;
15104;SDS011;7653;48.994;9.212;2022-10-10T00:36:31;6.53;;;3.57;;
15104;SDS011;7653;48.994;9.212;2022-10-10T00:38:57;7.90;;;4.07;;
15104;SDS011;7653;48.994;9.212;2022-10-10T00:41:22;5.87;;;3.43;;
15104;SDS011;7653;48.994;9.212;2022-10-10T00:44:01;5.30;;;3.93;;
15104;SDS011;7653;48.994;9.212;2022-10-10T00:46:28;7.40;;;4.00;;
15104;SDS011;7653;48.994;9.212;2022-10-10T00:48:53;6.07;;;4.40;;
15104;SDS011;7653;48.994;9.212;2022-10-10T00:51:19;5.07;;;3.93;;
15104;SDS011;7653;48.994;9.212;2022-10-10T00:53:48;4.63;;;4.00;;
15104;SDS011;7653;48.994;9.212;2022-10-10T00:56:20;5.43;;;3.90;;
15104;SDS011;7653;48.994;9.212;2022-10-10T00:58:51;5.77;;;3.87;;
15104;SDS011;7653;48.994;9.212;2022-10-10T01:01:20;5.57;;;3.90;;
15104;SDS011;7653;48.994;9.212;2022-10-10T01:03:46;4.63;;;3.87;;
15104;SDS011;7653;48.994;9.212;2022-10-10T01:06:11;8.73;;;4.57;;
15104;SDS011;7653;48.994;9.212;2022-10-10T01:08:37;8.20;;;4.23;;
15104;SDS011;7653;48.994;9.212;2022-10-10T01:16:51;5.00;;;4.27;;
15104;SDS011;7653;48.994;9.212;2022-10-10T01:28:17;6.60;;;4.23;;
15104;SDS011;7653;48.994;9.212;2022-10-10T01:31:02;5.90;;;3.97;;
15104;SDS011;7653;48.994;9.212;2022-10-10T01:36:20;3.83;;;3.10;;
15104;SDS011;7653;48.994;9.212;2022-10-10T01:39:02;5.37;;;3.90;;
15104;SDS011;7653;48.994;9.212;2022-10-10T01:41:42;7.03;;;3.87;;
15104;SDS011;7653;48.994;9.212;2022-10-10T01:44:14;5.23;;;3.63;;
15104;SDS011;7653;48.994;9.212;2022-10-10T01:46:40;5.30;;;4.33;;
15104;SDS011;7653;48.994;9.212;2022-10-10T01:49:06;7.07;;;4.27;;
15104;SDS011;7653;48.994;9.212;2022-10-10T01:54:46;6.37;;;4.87;;
15104;SDS011;7653;48.994;9.212;2022-10-10T02:00:23;6.53;;;3.87;;
15104;SDS011;7653;48.994;9.212;2022-10-10T02:03:08;7.53;;;5.20;;
15104;SDS011;7653;48.994;9.212;2022-10-10T02:08:47;5.80;;;4.40;;
15104;SDS011;7653;48.994;9.212;2022-10-10T02:11:13;5.93;;;4.87;;
15104;SDS011;7653;48.994;9.212;2022-10-10T02:16:28;8.23;;;4.93;;
15104;SDS011;7653;48.994;9.212;2022-10-10T02:18:59;8.00;;;5.40;;
15104;SDS011;7653;48.994;9.212;2022-10-10T02:21:27;6.03;;;4.37;;
15104;SDS011;7653;48.994;9.212;2022-10-10T02:23:54;8.27;;;4.43;;
15104;SDS011;7653;48.994;9.212;2022-10-10T02:26:23;5.07;;;4.13;;
15104;SDS011;7653;48.994;9.212;2022-10-10T02:29:25;5.73;;;4.50;;
15104;SDS011;7653;48.994;9.212;2022-10-10T02:34:18;9.67;;;4.73;;
15104;SDS011;7653;48.994;9.212;2022-10-10T02:36:49;6.50;;;4.17;;
15104;SDS011;7653;48.994;9.212;2022-10-10T02:39:18;6.80;;;4.53;;
15104;SDS011;7653;48.994;9.212;2022-10-10T02:41:48;5.13;;;4.63;;
15104;SDS011;7653;48.994;9.212;2022-10-10T02:44:16;7.43;;;5.10;;
15104;SDS011;7653;48.994;9.212;2022-10-10T02:46:43;6.67;;;4.77;;
15104;SDS011;7653;48.994;9.212;2022-10-10T02:49:09;6.47;;;4.70;;
15104;SDS011;7653;48.994;9.212;2022-10-10T02:51:35;6.17;;;4.33;;
15104;SDS011;7653;48.994;9.212;2022-10-10T02:54:03;8.70;;;5.07;;
15104;SDS011;7653;48.994;9.212;2022-10-10T02:56:29;5.87;;;3.93;;
15104;SDS011;7653;48.994;9.212;2022-10-10T02:58:56;7.43;;;5.30;;
15104;SDS011;7653;48.994;9.212;2022-10-10T03:01:22;7.97;;;5.10;;
15104;SDS011;7653;48.994;9.212;2022-10-10T03:03:48;6.50;;;4.80;;
15104;SDS011;7653;48.994;9.212;2022-10-10T03:06:13;8.67;;;5.10;;
15104;SDS011;7653;48.994;9.212;2022-10-10T03:08:40;8.57;;;5.77;;
15104;SDS011;7653;48.994;9.212;2022-10-10T03:11:06;4.93;;;4.20;;
15104;SDS011;7653;48.994;9.212;2022-10-10T03:13:32;6.90;;;4.80;;
15104;SDS011;7653;48.994;9.212;2022-10-10T03:15:57;6.90;;;5.13;;
15104;SDS011;7653;48.994;9.212;2022-10-10T03:18:23;7.97;;;5.10;;
15104;SDS011;7653;48.994;9.212;2022-10-10T03:20:49;7.40;;;5.50;;
15104;SDS011;7653;48.994;9.212;2022-10-10T03:23:16;7.60;;;5.47;;
15104;SDS011;7653;48.994;9.212;2022-10-10T03:25:44;9.70;;;5.40;;
15104;SDS011;7653;48.994;9.212;2022-10-10T03:28:10;7.93;;;5.60;;
15104;SDS011;7653;48.994;9.212;2022-10-10T03:30:35;6.67;;;5.83;;
15104;SDS011;7653;48.994;9.212;2022-10-10T03:33:01;7.67;;;5.60;;
15104;SDS011;7653;48.994;9.212;2022-10-10T03:35:27;7.93;;;5.83;;
15104;SDS011;7653;48.994;9.212;2022-10-10T03:37:53;9.60;;;6.10;;
15104;SDS011;7653;48.994;9.212;2022-10-10T03:40:18;8.43;;;6.27;;
15104;SDS011;7653;48.994;9.212;2022-10-10T03:42:44;7.57;;;5.90;;
15104;SDS011;7653;48.994;9.212;2022-10-10T03:45:10;6.40;;;5.20;;
15104;SDS011;7653;48.994;9.212;2022-10-10T03:47:35;6.20;;;5.40;;
15104;SDS011;7653;48.994;9.212;2022-10-10T03:50:01;10.20;;;5.43;;
15104;SDS011;7653;48.994;9.212;2022-10-10T03:52:27;7.53;;;5.30;;
15104;SDS011;7653;48.994;9.212;2022-10-10T03:54:52;8.03;;;6.00;;
15104;SDS011;7653;48.994;9.212;2022-10-10T03:57:18;9.63;;;4.93;;
15104;SDS011;7653;48.994;9.212;2022-10-10T03:59:43;7.30;;;4.90;;
15104;SDS011;7653;48.994;9.212;2022-10-10T04:02:09;6.77;;;5.17;;
15104;SDS011;7653;48.994;9.212;2022-10-10T04:04:35;7.70;;;5.43;;
15104;SDS011;7653;48.994;9.212;2022-10-10T04:07:00;8.97;;;6.20;;
15104;SDS011;7653;48.994;9.212;2022-10-10T04:09:27;6.93;;;4.87;;
15104;SDS011;7653;48.994;9.212;2022-10-10T04:11:52;5.40;;;4.53;;
15104;SDS011;7653;48.994;9.212;2022-10-10T04:14:20;6.93;;;5.10;;
15104;SDS011;7653;48.994;9.212;2022-10-10T04:16:45;6.13;;;5.47;;
15104;SDS011;7653;48.994;9.212;2022-10-10T04:19:14;7.20;;;5.50;;
15104;SDS011;7653;48.994;9.212;2022-10-10T04:21:39;6.40;;;5.60;;
15104;SDS011;7653;48.994;9.212;2022-10-10T04:24:05;6.10;;;5.50;;
15104;SDS011;7653;48.994;9.212;2022-10-10T04:26:31;7.53;;;5.47;;
15104;SDS011;7653;48.994;9.212;2022-10-10T04:28:56;7.07;;;5.33;;
15104;SDS011;7653;48.994;9.212;2022-10-10T04:31:22;7.13;;;5.30;;
15104;SDS011;7653;48.994;9.212;2022-10-10T04:33:54;8.50;;;5.60;;
15104;SDS011;7653;48.994;9.212;2022-10-10T04:36:21;7.80;;;5.27;;
15104;SDS011;7653;48.994;9.212;2022-10-10T04:38:47;6.47;;;5.20;;
15104;SDS011;7653;48.994;9.212;2022-10-10T04:41:13;9.23;;;6.03;;
15104;SDS011;7653;48.994;9.212;2022-10-10T04:43:38;7.57;;;5.47;;
15104;SDS011;7653;48.994;9.212;2022-10-10T04:46:04;7.30;;;5.20;;
15104;SDS011;7653;48.994;9.212;2022-10-10T04:48:29;7.70;;;5.57;;
15104;SDS011;7653;48.994;9.212;2022-10-10T04:50:56;8.03;;;5.13;;
15104;SDS011;7653;48.994;9.212;2022-10-10T04:53:23;7.00;;;5.70;;
15104;SDS011;7653;48.994;9.212;2022-10-10T04:55:52;7.40;;;5.67;;
15104;SDS011;7653;48.994;9.212;2022-10-10T04:58:18;8.33;;;5.17;;
15104;SDS011;7653;48.994;9.212;2022-10-10T05:00:43;8.13;;;5.80;;
15104;SDS011;7653;48.994;9.212;2022-10-10T05:03:10;8.37;;;6.47;;
15104;SDS011;7653;48.994;9.212;2022-10-10T05:05:39;9.30;;;6.83;;
15104;SDS011;7653;48.994;9.212;2022-10-10T05:08:06;7.80;;;6.10;;
15104;SDS011;7653;48.994;9.212;2022-10-10T05:10:35;8.33;;;6.43;;
15104;SDS011;7653;48.994;9.212;2022-10-10T05:13:02;8.80;;;6.80;;
15104;SDS011;7653;48.994;9.212;2022-10-10T05:15:28;9.23;;;6.60;;
15104;SDS011;7653;48.994;9.212;2022-10-10T05:17:54;7.67;;;5.37;;
15104;SDS011;7653;48.994;9.212;2022-10-10T05:20:20;8.37;;;6.20;;
15104;SDS011;7653;48.994;9.212;2022-10-10T05:22:46;6.57;;;5.50;;
15104;SDS011;7653;48.994;9.212;2022-10-10T05:25:12;7.67;;;6.07;;
15104;SDS011;7653;48.994;9.212;2022-10-10T05:27:38;8.57;;;5.53;;
15104;SDS011;7653;48.994;9.212;2022-10-10T05:30:04;8.13;;;6.50;;
15104;SDS011;7653;48.994;9.212;2022-10-10T05:32:31;8.33;;;5.53;;
15104;SDS011;7653;48.994;9.212;2022-10-10T05:34:56;10.60;;;6.13;;
15104;SDS011;7653;48.994;9.212;2022-10-10T05:37:22;7.93;;;6.37;;
15104;SDS011;7653;48.994;9.212;2022-10-10T05:39:47;7.53;;;6.33;;
15104;SDS011;7653;48.994;9.212;2022-10-10T05:42:13;8.43;;;5.97;;
15104;SDS011;7653;48.994;9.212;2022-10-10T05:44:39;8.97;;;6.20;;
15104;SDS011;7653;48.994;9.212;2022-10-10T05:47:05;9.33;;;5.87;;
15104;SDS011;7653;48.994;9.212;2022-10-10T05:49:30;8.63;;;5.90;;
15104;SDS011;7653;48.994;9.212;2022-10-10T05:51:56;7.73;;;5.27;;
15104;SDS011;7653;48.994;9.212;2022-10-10T05:54:22;10.27;;;5.30;;
15104;SDS011;7653;48.994;9.212;2022-10-10T05:56:47;11.07;;;6.27;;
15104;SDS011;7653;48.994;9.212;2022-10-10T05:59:13;11.03;;;6.93;;
15104;SDS011;7653;48.994;9.212;2022-10-10T06:01:38;10.97;;;6.90;;
15104;SDS011;7653;48.994;9.212;2022-10-10T06:04:04;8.37;;;6.23;;
15104;SDS011;7653;48.994;9.212;2022-10-10T06:06:30;8.60;;;6.33;;
15104;SDS011;7653;48.994;9.212;2022-10-10T06:08:55;10.57;;;7.07;;
15104;SDS011;7653;48.994;9.212;2022-10-10T06:11:21;10.13;;;6.10;;
15104;SDS011;7653;48.994;9.212;2022-10-10T06:13:49;11.33;;;6.20;;
15104;SDS011;7653;48.994;9.212;2022-10-10T06:16:18;9.87;;;6.30;;
15104;SDS011;7653;48.994;9.212;2022-10-10T06:18:47;8.27;;;6.00;;
15104;SDS011;7653;48.994;9.212;2022-10-10T06:21:13;16.07;;;7.07;;
15104;SDS011;7653;48.994;9.212;2022-10-10T06:23:39;15.97;;;7.40;;
15104;SDS011;7653;48.994;9.212;2022-10-10T06:26:05;11.70;;;7.70;;
15104;SDS011;7653;48.994;9.212;2022-10-10T06:28:31;11.03;;;6.67;;
15104;SDS011;7653;48.994;9.212;2022-10-10T06:30:58;9.40;;;6.40;;
15104;SDS011;7653;48.994;9.212;2022-10-10T06:33:25;13.97;;;10.87;;
15104;SDS011;7653;48.994;9.212;2022-10-10T06:35:51;13.97;;;9.00;;
15104;SDS011;7653;48.994;9.212;2022-10-10T06:38:17;10.53;;;8.63;;
15104;SDS011;7653;48.994;9.212;2022-10-10T06:40:43;16.23;;;9.57;;
15104;SDS011;7653;48.994;9.212;2022-10-10T06:43:11;13.60;;;8.93;;
15104;SDS011;7653;48.994;9.212;2022-10-10T06:45:39;13.93;;;7.67;;
15104;SDS011;7653;48.994;9.212;2022-10-10T06:48:10;11.90;;;8.30;;
15104;SDS011;7653;48.994;9.212;2022-10-10T06:50:37;16.40;;;9.33;;
15104;SDS011;7653;48.994;9.212;2022-10-10T06:53:03;14.97;;;8.97;;
15104;SDS011;7653;48.994;9.212;2022-10-10T06:55:29;15.80;;;7.97;;
15104;SDS011;7653;48.994;9.212;2022-10-10T06:57:55;12.17;;;7.80;;
15104;SDS011;7653;48.994;9.212;2022-10-10T07:00:21;12.03;;;7.70;;
15104;SDS011;7653;48.994;9.212;2022-10-10T07:02:47;9.77;;;7.23;;
15104;SDS011;7653;48.994;9.212;2022-10-10T07:05:14;10.53;;;7.33;;
15104;SDS011;7653;48.994;9.212;2022-10-10T07:07:43;14.13;;;6.97;;
15104;SDS011;7653;48.994;9.212;2022-10-10T07:10:11;10.10;;;7.03;;
15104;SDS011;7653;48.994;9.212;2022-10-10T07:12:38;14.37;;;8.07;;
15104;SDS011;7653;48.994;9.212;2022-10-10T07:15:07;18.73;;;8.90;;
15104;SDS011;7653;48.994;9.212;2022-10-10T07:17:38;16.73;;;9.17;;
15104;SDS011;7653;48.994;9.212;2022-10-10T07:20:06;13.13;;;8.33;;
15104;SDS011;7653;48.994;9.212;2022-10-10T07:22:48;11.40;;;7.90;;
15104;SDS011;7653;48.994;9.212;2022-10-10T07:25:13;10.47;;;6.77;;
15104;SDS011;7653;48.994;9.212;2022-10-10T07:27:39;10.37;;;6.90;;
15104;SDS011;7653;48.994;9.212;2022-10-10T07:30:05;10.17;;;6.83;;
15104;SDS011;7653;48.994;9.212;2022-10-10T07:32:31;15.93;;;7.63;;
15104;SDS011;7653;48.994;9.212;2022-10-10T07:34:56;18.00;;;7.63;;
15104;SDS011;7653;48.994;9.212;2022-10-10T07:37:22;14.20;;;7.97;;
15104;SDS011;7653;48.994;9.212;2022-10-10T07:39:50;12.00;;;7.20;;
15104;SDS011;7653;48.994;9.212;2022-10-10T07:42:17;14.20;;;7.70;;
15104;SDS011;7653;48.994;9.212;2022-10-10T07:44:42;12.87;;;6.73;;
15104;SDS011;7653;48.994;9.212;2022-10-10T07:47:08;10.90;;;6.90;;
15104;SDS011;7653;48.994;9.212;2022-10-10T07:49:34;10.40;;;7.30;;
15104;SDS011;7653;48.994;9.212;2022-10-10T07:51:59;14.00;;;7.50;;
15104;SDS011;7653;48.994;9.212;2022-10-10T07:54:29;13.40;;;6.40;;
15104;SDS011;7653;48.994;9.212;2022-10-10T07:56:58;11.50;;;6.90;;
15104;SDS011;7653;48.994;9.212;2022-10-10T07:59:23;13.17;;;6.80;;
15104;SDS011;7653;48.994;9.212;2022-10-10T08:01:49;16.40;;;7.57;;
15104;SDS011;7653;48.994;9.212;2022-10-10T08:04:15;10.80;;;7.00;;
15104;SDS011;7653;48.994;9.212;2022-10-10T08:06:42;11.50;;;6.53;;
15104;SDS011;7653;48.994;9.212;2022-10-10T08:09:21;9.33;;;6.27;;
15104;SDS011;7653;48.994;9.212;2022-10-10T08:11:49;13.07;;;6.63;;
15104;SDS011;7653;48.994;9.212;2022-10-10T08:14:18;15.50;;;6.33;;
15104;SDS011;7653;48.994;9.212;2022-10-10T08:16:45;9.40;;;6.50;;
15104;SDS011;7653;48.994;9.212;2022-10-10T08:19:12;13.63;;;6.73;;
15104;SDS011;7653;48.994;9.212;2022-10-10T08:21:38;14.43;;;6.33;;
15104;SDS011;7653;48.994;9.212;2022-10-10T08:24:03;11.93;;;6.40;;
15104;SDS011;7653;48.994;9.212;2022-10-10T08:26:30;10.70;;;6.10;;
15104;SDS011;7653;48.994;9.212;2022-10-10T08:28:55;11.13;;;6.20;;
15104;SDS011;7653;48.994;9.212;2022-10-10T08:31:21;12.93;;;6.70;;
15104;SDS011;7653;48.994;9.212;2022-10-10T08:33:48;12.90;;;6.77;;
15104;SDS011;7653;48.994;9.212;2022-10-10T08:36:21;10.90;;;6.17;;
15104;SDS011;7653;48.994;9.212;2022-10-10T08:38:48;17.20;;;7.00;;
15104;SDS011;7653;48.994;9.212;2022-10-10T08:43:59;11.77;;;6.70;;
15104;SDS011;7653;48.994;9.212;2022-10-10T08:49:22;13.10;;;6.80;;
15104;SDS011;7653;48.994;9.212;2022-10-10T08:52:10;11.20;;;5.97;;
15104;SDS011;7653;48.994;9.212;2022-10-10T08:54:37;11.67;;;6.27;;
15104;SDS011;7653;48.994;9.212;2022-10-10T08:57:05;16.00;;;6.80;;
15104;SDS011;7653;48.994;9.212;2022-10-10T08:59:37;7.07;;;6.10;;
15104;SDS011;7653;48.994;9.212;2022-10-10T09:02:38;6.97;;;5.90;;
15104;SDS011;7653;48.994;9.212;2022-10-10T09:05:12;10.53;;;6.40;;
15104;SDS011;7653;48.994;9.212;2022-10-10T09:12:50;8.27;;;5.73;;
15104;SDS011;7653;48.994;9.212;2022-10-10T09:15:40;9.60;;;5.10;;
15104;SDS011;7653;48.994;9.212;2022-10-10T09:18:20;9.97;;;5.13;;
15104;SDS011;7653;48.994;9.212;2022-10-10T09:26:17;8.07;;;5.07;;
15104;SDS011;7653;48.994;9.212;2022-10-10T09:28:49;6.90;;;5.30;;
15104;SDS011;7653;48.994;9.212;2022-10-10T09:33:58;10.67;;;5.83;;
15104;SDS011;7653;48.994;9.212;2022-10-10T09:36:29;7.47;;;5.50;;
15104;SDS011;7653;48.994;9.212;2022-10-10T09:38:59;10.07;;;5.57;;
15104;SDS011;7653;48.994;9.212;2022-10-10T09:41:41;9.57;;;5.43;;
15104;SDS011;7653;48.994;9.212;2022-10-10T09:44:14;15.50;;;5.23;;
15104;SDS011;7653;48.994;9.212;2022-10-10T09:46:43;13.33;;;5.43;;
15104;SDS011;7653;48.994;9.212;2022-10-10T09:49:09;12.17;;;5.60;;
15104;SDS011;7653;48.994;9.212;2022-10-10T09:51:40;12.27;;;4.87;;
15104;SDS011;7653;48.994;9.212;2022-10-10T09:54:07;10.07;;;4.73;;
15104;SDS011;7653;48.994;9.212;2022-10-10T09:56:36;6.63;;;4.23;;
15104;SDS011;7653;48.994;9.212;2022-10-10T09:59:07;7.30;;;3.83;;
15104;SDS011;7653;48.994;9.212;2022-10-10T10:02:10;9.57;;;4.63;;
15104;SDS011;7653;48.994;9.212;2022-10-10T10:04:39;7.33;;;4.30;;
15104;SDS011;7653;48.994;9.212;2022-10-10T10:12:28;10.67;;;4.83;;
15104;SDS011;7653;48.994;9.212;2022-10-10T10:15:05;7.20;;;4.23;;
15104;SDS011;7653;48.994;9.212;2022-10-10T10:17:40;6.53;;;4.30;;
15104;SDS011;7653;48.994;9.212;2022-10-10T10:28:55;7.20;;;4.27;;
15104;SDS011;7653;48.994;9.212;2022-10-10T10:49:20;8.90;;;4.17;;
15104;SDS011;7653;48.994;9.212;2022-10-10T10:57:25;14.83;;;4.87;;
15104;SDS011;7653;48.994;9.212;2022-10-10T11:10:50;15.70;;;3.63;;
15104;SDS011;7653;48.994;9.212;2022-10-10T11:17:11;12.13;;;3.47;;
15104;SDS011;7653;48.994;9.212;2022-10-10T11:19:55;8.37;;;3.23;;
15104;SDS011;7653;48.994;9.212;2022-10-10T11:22:35;8.10;;;3.10;;
15104;SDS011;7653;48.994;9.212;2022-10-10T11:28:01;9.43;;;3.57;;
15104;SDS011;7653;48.994;9.212;2022-10-10T11:30:32;9.40;;;3.13;;
15104;SDS011;7653;48.994;9.212;2022-10-10T11:33:09;7.20;;;2.87;;
15104;SDS011;7653;48.994;9.212;2022-10-10T11:41:36;13.03;;;3.27;;
15104;SDS011;7653;48.994;9.212;2022-10-10T11:44:04;15.47;;;3.47;;
15104;SDS011;7653;48.994;9.212;2022-10-10T11:46:36;12.20;;;2.80;;
15104;SDS011;7653;48.994;9.212;2022-10-10T11:57:01;9.57;;;3.00;;
15104;SDS011;7653;48.994;9.212;2022-10-10T11:59:33;8.13;;;2.87;;
15104;SDS011;7653;48.994;9.212;2022-10-10T12:04:59;6.67;;;2.70;;
15104;SDS011;7653;48.994;9.212;2022-10-10T12:07:35;6.70;;;2.70;;
15104;SDS011;7653;48.994;9.212;2022-10-10T12:10:14;4.90;;;2.63;;
15104;SDS011;7653;48.994;9.212;2022-10-10T12:12:48;5.13;;;2.87;;
15104;SDS011;7653;48.994;9.212;2022-10-10T12:15:36;6.40;;;2.50;;
15104;SDS011;7653;48.994;9.212;2022-10-10T12:18:03;4.33;;;2.40;;
15104;SDS011;7653;48.994;9.212;2022-10-10T12:20:33;10.67;;;2.50;;
15104;SDS011;7653;48.994;9.212;2022-10-10T12:25:54;6.77;;;3.13;;
15104;SDS011;7653;48.994;9.212;2022-10-10T12:33:22;8.97;;;2.60;;
15104;SDS011;7653;48.994;9.212;2022-10-10T12:36:43;4.67;;;2.70;;
15104;SDS011;7653;48.994;9.212;2022-10-10T12:46:38;6.97;;;2.50;;
15104;SDS011;7653;48.994;9.212;2022-10-10T12:49:16;8.30;;;2.60;;
15104;SDS011;7653;48.994;9.212;2022-10-10T12:51:43;7.37;;;2.80;;
15104;SDS011;7653;48.994;9.212;2022-10-10T12:54:32;4.67;;;2.60;;
15104;SDS011;7653;48.994;9.212;2022-10-10T12:59:43;12.03;;;3.37;;
15104;SDS011;7653;48.994;9.212;2022-10-10T13:02:21;14.63;;;4.03;;
15104;SDS011;7653;48.994;9.212;2022-10-10T13:04:53;9.02;;;2.70;;
15104;SDS011;7653;48.994;9.212;2022-10-10T13:07:22;5.80;;;2.83;;
15104;SDS011;7653;48.994;9.212;2022-10-10T13:09:50;6.25;;;2.53;;
15104;SDS011;7653;48.994;9.212;2022-10-10T13:12:25;6.68;;;2.50;;
15104;SDS011;7653;48.994;9.212;2022-10-10T13:14:53;8.50;;;2.92;;
15104;SDS011;7653;48.994;9.212;2022-10-10T13:19:51;4.70;;;2.50;;
15104;SDS011;7653;48.994;9.212;2022-10-10T13:22:18;9.30;;;3.10;;
15104;SDS011;7653;48.994;9.212;2022-10-10T13:24:44;6.80;;;2.50;;
15104;SDS011;7653;48.994;9.212;2022-10-10T13:27:16;7.95;;;3.00;;
15104;SDS011;7653;48.994;9.212;2022-10-10T13:29:51;5.65;;;2.40;;
15104;SDS011;7653;48.994;9.212;2022-10-10T13:32:19;6.13;;;2.42;;
15104;SDS011;7653;48.994;9.212;2022-10-10T13:34:57;11.35;;;7.60;;
15104;SDS011;7653;48.994;9.212;2022-10-10T13:37:25;9.20;;;2.97;;
15104;SDS011;7653;48.994;9.212;2022-10-10T13:39:52;6.55;;;2.63;;
15104;SDS011;7653;48.994;9.212;2022-10-10T13:44:53;9.02;;;3.03;;
15104;SDS011;7653;48.994;9.212;2022-10-10T13:50:15;9.20;;;3.38;;
15104;SDS011;7653;48.994;9.212;2022-10-10T13:52:42;6.35;;;2.70;;
15104;SDS011;7653;48.994;9.212;2022-10-10T13:55:41;8.35;;;2.78;;
15104;SDS011;7653;48.994;9.212;2022-10-10T13:58:04;22.63;;;10.80;;
15104;SDS011;7653;48.994;9.212;2022-10-10T14:00:33;10.45;;;3.47;;
15104;SDS011;7653;48.994;9.212;2022-10-10T14:03:13;9.18;;;2.80;;
15104;SDS011;7653;48.994;9.212;2022-10-10T14:05:43;7.57;;;2.55;;
15104;SDS011;7653;48.994;9.212;2022-10-10T14:08:20;10.27;;;2.80;;
15104;SDS011;7653;48.994;9.212;2022-10-10T14:13:52;8.57;;;2.50;;
15104;SDS011;7653;48.994;9.212;2022-10-10T14:16:22;11.20;;;2.58;;
15104;SDS011;7653;48.994;9.212;2022-10-10T14:18:49;9.65;;;2.50;;
15104;SDS011;7653;48.994;9.212;2022-10-10T14:21:15;5.53;;;2.17;;
15104;SDS011;7653;48.994;9.212;2022-10-10T14:23:41;8.55;;;2.40;;
15104;SDS011;7653;48.994;9.212;2022-10-10T14:26:10;6.20;;;2.35;;
15104;SDS011;7653;48.994;9.212;2022-10-10T14:28:42;12.27;;;2.63;;
15104;SDS011;7653;48.994;9.212;2022-10-10T14:31:08;11.23;;;3.03;;
15104;SDS011;7653;48.994;9.212;2022-10-10T14:33:34;10.52;;;2.88;;
15104;SDS011;7653;48.994;9.212;2022-10-10T14:36:02;9.13;;;2.65;;
15104;SDS011;7653;48.994;9.212;2022-10-10T14:38:29;6.90;;;2.40;;
15104;SDS011;7653;48.994;9.212;2022-10-10T14:40:55;9.88;;;3.00;;
15104;SDS011;7653;48.994;9.212;2022-10-10T14:43:21;8.35;;;2.42;;
15104;SDS011;7653;48.994;9.212;2022-10-10T14:45:48;8.43;;;2.30;;
15104;SDS011;7653;48.994;9.212;2022-10-10T14:48:16;5.97;;;2.30;;
15104;SDS011;7653;48.994;9.212;2022-10-10T14:50:43;12.33;;;2.83;;
15104;SDS011;7653;48.994;9.212;2022-10-10T14:53:11;12.37;;;2.63;;
15104;SDS011;7653;48.994;9.212;2022-10-10T14:55:37;15.37;;;7.67;;
15104;SDS011;7653;48.994;9.212;2022-10-10T14:58:08;14.43;;;3.40;;
15104;SDS011;7653;48.994;9.212;2022-10-10T15:00:37;17.50;;;9.20;;
15104;SDS011;7653;48.994;9.212;2022-10-10T15:03:06;13.60;;;6.07;;
15104;SDS011;7653;48.994;9.212;2022-10-10T15:05:36;8.60;;;3.67;;
15104;SDS011;7653;48.994;9.212;2022-10-10T15:08:02;7.80;;;2.60;;
15104;SDS011;7653;48.994;9.212;2022-10-10T15:10:30;9.37;;;2.73;;
15104;SDS011;7653;48.994;9.212;2022-10-10T15:12:55;10.77;;;3.63;;
15104;SDS011;7653;48.994;9.212;2022-10-10T15:15:21;11.13;;;3.13;;
15104;SDS011;7653;48.994;9.212;2022-10-10T15:17:47;8.67;;;3.03;;
15104;SDS011;7653;48.994;9.212;2022-10-10T15:20:13;10.00;;;2.97;;
15104;SDS011;7653;48.994;9.212;2022-10-10T15:22:40;7.03;;;2.80;;
15104;SDS011;7653;48.994;9.212;2022-10-10T15:25:10;13.27;;;3.10;;
15104;SDS011;7653;48.994;9.212;2022-10-10T15:27:36;7.13;;;2.20;;
15104;SDS011;7653;48.994;9.212;2022-10-10T15:30:02;12.67;;;3.00;;
15104;SDS011;7653;48.994;9.212;2022-10-10T15:32:29;11.40;;;2.77;;
15104;SDS011;7653;48.994;9.212;2022-10-10T15:34:55;14.17;;;3.30;;
15104;SDS011;7653;48.994;9.212;2022-10-10T15:37:26;10.27;;;3.20;;
15104;SDS011;7653;48.994;9.212;2022-10-10T15:39:52;12.23;;;3.20;;
15104;SDS011;7653;48.994;9.212;2022-10-10T15:42:18;11.70;;;2.90;;
15104;SDS011;7653;48.994;9.212;2022-10-10T15:44:44;11.00;;;2.80;;
15104;SDS011;7653;48.994;9.212;2022-10-10T15:47:11;11.20;;;3.07;;
15104;SDS011;7653;48.994;9.212;2022-10-10T15:49:41;10.80;;;2.90;;
15104;SDS011;7653;48.994;9.212;2022-10-10T15:52:09;12.50;;;3.10;;
15104;SDS011;7653;48.994;9.212;2022-10-10T15:54:34;8.90;;;2.77;;
15104;SDS011;7653;48.994;9.212;2022-10-10T15:57:00;8.27;;;2.90;;
15104;SDS011;7653;48.994;9.212;2022-10-10T15:59:26;13.23;;;2.87;;
15104;SDS011;7653;48.994;9.212;2022-10-10T16:01:51;11.97;;;3.00;;
15104;SDS011;7653;48.994;9.212;2022-10-10T16:04:19;9.87;;;2.73;;
15104;SDS011;7653;48.994;9.212;2022-10-10T16:06:46;10.37;;;3.00;;
15104;SDS011;7653;48.994;9.212;2022-10-10T16:09:12;11.90;;;2.93;;
15104;SDS011;7653;48.994;9.212;2022-10-10T16:11:38;7.83;;;2.77;;
15104;SDS011;7653;48.994;9.212;2022-10-10T16:14:03;7.40;;;2.70;;
15104;SDS011;7653;48.994;9.212;2022-10-10T16:16:29;11.03;;;2.70;;
15104;SDS011;7653;48.994;9.212;2022-10-10T16:18:55;8.90;;;2.53;;
15104;SDS011;7653;48.994;9.212;2022-10-10T16:21:22;9.97;;;2.80;;
15104;SDS011;7653;48.994;9.212;2022-10-10T16:23:48;12.30;;;3.13;;
15104;SDS011;7653;48.994;9.212;2022-10-10T16:26:17;9.77;;;3.30;;
15104;SDS011;7653;48.994;9.212;2022-10-10T16:28:45;8.97;;;2.90;;
15104;SDS011;7653;48.994;9.212;2022-10-10T16:31:12;7.63;;;2.63;;
15104;SDS011;7653;48.994;9.212;2022-10-10T16:33:40;9.87;;;2.90;;
15104;SDS011;7653;48.994;9.212;2022-10-10T16:36:11;11.10;;;3.27;;
15104;SDS011;7653;48.994;9.212;2022-10-10T16:38:37;8.80;;;3.17;;
15104;SDS011;7653;48.994;9.212;2022-10-10T16:41:08;12.33;;;3.10;;
15104;SDS011;7653;48.994;9.212;2022-10-10T16:43:36;17.20;;;4.07;;
15104;SDS011;7653;48.994;9.212;2022-10-10T16:46:08;16.63;;;3.97;;
15104;SDS011;7653;48.994;9.212;2022-10-10T16:48:37;13.23;;;3.20;;
15104;SDS011;7653;48.994;9.212;2022-10-10T16:51:08;11.57;;;3.13;;
15104;SDS011;7653;48.994;9.212;2022-10-10T16:53:36;11.83;;;3.33;;
15104;SDS011;7653;48.994;9.212;2022-10-10T16:56:02;11.70;;;3.60;;
15104;SDS011;7653;48.994;9.212;2022-10-10T16:58:32;11.40;;;3.60;;
15104;SDS011;7653;48.994;9.212;2022-10-10T17:00:58;10.67;;;3.47;;
15104;SDS011;7653;48.994;9.212;2022-10-10T17:03:30;9.27;;;3.27;;
15104;SDS011;7653;48.994;9.212;2022-10-10T17:06:12;10.93;;;3.03;;
15104;SDS011;7653;48.994;9.212;2022-10-10T17:08:40;11.53;;;4.07;;
15104;SDS011;7653;48.994;9.212;2022-10-10T17:11:07;12.60;;;3.70;;
15104;SDS011;7653;48.994;9.212;2022-10-10T17:13:33;12.27;;;4.40;;
15104;SDS011;7653;48.994;9.212;2022-10-10T17:16:07;15.67;;;6.43;;
15104;SDS011;7653;48.994;9.212;2022-10-10T17:18:35;15.20;;;4.60;;
15104;SDS011;7653;48.994;9.212;2022-10-10T17:21:01;10.77;;;3.17;;
15104;SDS011;7653;48.994;9.212;2022-10-10T17:23:29;9.60;;;3.13;;
15104;SDS011;7653;48.994;9.212;2022-10-10T17:25:57;8.33;;;3.37;;
15104;SDS011;7653;48.994;9.212;2022-10-10T17:28:23;8.10;;;3.20;;
15104;SDS011;7653;48.994;9.212;2022-10-10T17:30:48;11.87;;;4.03;;
15104;SDS011;7653;48.994;9.212;2022-10-10T17:33:15;9.50;;;4.03;;
15104;SDS011;7653;48.994;9.212;2022-10-10T17:35:42;8.03;;;4.03;;